Hartford, Connecticut
Current Conditions -  °F | °C
As of 1:53 PM on Thursday 30 Oct 2014 (Local Time) from KHFD Reporting Station
Overcast Overcast  
Wind Chill: 56°   Ceiling: 5500
Heat Index: 56°   Visibility: 10mi
Dew Point: 35°   Wind: 6mph
Humidity: 45%   Direction: 300°WNW
Pressure: 29.95"   Gusts: NA
Location:  41.76°N, 72.67°W
Report Text: KHFD 301753Z 30005KT 10SM OVC055 13/02 A2995 RMK AO2 SLP141 T01330017 10144 20044 58010
Loading
Personal Weather Stations






























Interactive Weather Map
Tropical Storm Tracking
New forecast layout! Learn more

10-Day Weather Forecast

Advertisements
Track Severe Weather on mobile